Station info - [map view · info · telemetry · weather · raw · status · beacons · messages · bulletins · browse · moving · my account]
Callsign, ship name or locator: Clear       
It is possible to search using wildcards (*?) after a prefix. Example: OH*
APRS station DF8FW-9 - show graphs
Map loading...
Comment: Peter F76
Mic-E message: En route
Location: 50°10.76' N 8°37.83' E - locator JO40HE53PA - show map - static map
4.7 miles West bearing 271° from Bad Vilbel, Regierungsbezirk Darmstadt, Hesse, Germany [?]
4.9 miles Northwest bearing 332° from Frankfurt am Main, Regierungsbezirk Darmstadt, Hesse, Germany
90.2 miles Southeast bearing 125° from Köln (Koeln), Regierungsbezirk Köln, North Rhine-Westphalia, Germany
Last position: 2014-04-19 05:53:27 EDT (2d 2h16m ago)
2014-04-19 11:53:27 CEST local time at Bad Vilbel, Germany [?]
Altitude: 446 ft
Course: 331°
Device: Kenwood: TM-D710 (rig)
Last path: DF8FW-9>UP1PW6 via WIDE1-1,qAS,DB3FAT (good)
Positions stored: 52556
Packet rate: 125 seconds between packets on average during 6255 seconds.
Other SSIDs: DF8FW-10
Stations near current position of DF8FW-9 - show more
callsign distance last heard - EDT      callsign distance last heard - EDT
DF8FW-1033.0 yards 51°2014-03-26 11:40:01 DG9FFE-11.7 miles 42°2014-04-19 06:57:20
DL3EL-42.1 miles 147°2014-04-21 07:24:41 DK3CW-132.9 miles 140°2014-04-13 09:47:44
DK3CW2.9 miles 139°2014-04-21 07:41:37 DK3CW-72.9 miles 139°2014-04-19 09:17:08
DK3CW-152.9 miles 139°2014-04-21 07:54:05 DK3CW-22.9 miles 139°2014-04-06 06:03:58
DK3CW-32.9 miles 139°2014-04-14 10:59:18 DF4FO-143.0 miles 125°2014-04-20 13:20:36
DF4FO-103.0 miles 125°2014-04-21 06:10:45 DL3EU-93.1 miles 133°2014-03-28 13:43:24
DL2FP-53.2 miles 339°2014-04-03 02:26:21 DL1ZM3.4 miles 137°2014-04-21 07:52:41
DB5ZQ3.6 miles 225°2014-04-21 08:05:58 DF0HR3.7 miles 146°2014-04-21 08:00:01
DM0DWD C4.0 miles 229°2014-04-21 07:54:45 DM0DWD-C4.0 miles 229°2014-04-21 07:54:55
DL6FBF-C4.1 miles 124°2014-04-17 08:32:29 DJ9CG-94.3 miles 208°2014-04-14 12:54:30
Stations which heard DF8FW-9 directly on radio –
callsign pkts first heard - EDT last heard longest (tx => rx) longest at - EDT
DB0GIS 1 2014-04-05 05:09:12 2014-04-05 05:09:12 JO40HC > JO40GP 36.7 miles 359° 2014-04-05 05:09:12
DB0MI 4 2014-04-05 01:34:16 2014-04-14 09:18:19 JO40HE > JN49PS 40.5 miles 134° 2014-04-14 09:18:19
DB0IBM-2 27 2014-04-05 01:35:49 2014-04-19 03:59:32 JO40IC > JN49DX 22.1 miles 247° 2014-04-05 07:31:45
DB0MRT 2 2014-04-19 01:26:53 2014-04-19 03:55:29 JO40HA > JO30TD 44.8 miles 282° 2014-04-19 03:55:29
DB0GV 1 2014-04-14 09:17:46 2014-04-14 09:17:46 JO40HE > JO40KD 11.0 miles 111° 2014-04-14 09:17:46
DB0KT 40 2014-04-05 01:41:20 2014-04-19 05:45:18 JN49FX > JO40PL 48.8 miles 46° 2014-04-19 01:32:56
DB0IDS 8 2014-04-05 06:12:37 2014-04-19 01:06:58 JO40ID > JO40CF 19.6 miles 283° 2014-04-05 07:25:12
DB0XIN 46 2014-04-05 01:54:18 2014-04-19 05:28:19 JO40HE > JN49FW 18.0 miles 207° 2014-04-05 07:18:41
DK3QA 56 2014-04-05 01:55:48 2014-04-19 03:51:00 JO40HB > JN49GU 13.2 miles 187° 2014-04-12 04:59:49
DB0ZAV-1 118 2014-04-05 01:31:05 2014-04-19 05:51:42 JO40FA > JO40JF 18.4 miles 45° 2014-04-05 01:51:48
DB0GV-5 53 2014-04-05 01:38:47 2014-04-19 05:51:11 JO40HD > JO40KD 11.5 miles 101° 2014-04-19 01:19:26
DK5ES-10 1 2014-04-05 04:58:43 2014-04-05 04:58:43 JO40FA > JN39XX 24.2 miles 264° 2014-04-05 04:58:43
DB3FAT 18 2014-04-12 01:03:26 2014-04-19 05:53:27 JO40HD > JO40MD 19.6 miles 89° 2014-04-12 01:05:56
DB0HAU 28 2014-04-05 01:36:14 2014-04-19 05:38:41 JO40FA > JO40FF 14.1 miles 353° 2014-04-12 01:15:30
DB0FDA 28 2014-04-05 01:47:51 2014-04-19 05:49:51 JO40HE > JN49HU 21.7 miles 177° 2014-04-19 01:18:23
DL1FX 12 2014-04-05 04:51:44 2014-04-19 03:50:28 JN49HW > JN49GR 13.9 miles 187° 2014-04-19 03:50:28
DC4ZZ 68 2014-04-05 01:32:13 2014-04-19 05:52:14 JO40GA > JO40LC 19.5 miles 74° 2014-04-19 01:29:27

Only position packets which were originated by the station are shown here. The range statistics show some extra long hops, because some digipeaters do not correctly add themselves to the digipeater path. Please check the raw packets.
About this site
This page shows real-time information collected from the Automatic Position Reporting System Internet network (APRS-IS). APRS is used by amateur (ham) radio operators to transmit real-time position information, weather data, telemetry and messages over the radio. A vehicle equipped with a GPS receiver, a VHF transmitter or HF transceiver and a small computer device called a tracker transmits it's location, speed and course in a small data packet, which is then received by a nearby iGate receiving site which forwards the packet on the Internet. Systems connected to the Internet can send information on the APRS-IS without a radio transmitter, or collect and display information transmitted anywhere in the world.
User guide · FAQ · Blog · Discussion group · Linking to aprs.fi · AIS sites · Service status · Database statistics · Advertising on aprs.fi · Technical details · API · Change log · Planned changes · Credits and thanks · Terms Of Service